sensor_id;sensor_type;location;lat;lon;timestamp;pressure;altitude;pressure_sealevel;temperature;humidity
69035;BME280;56091;55.756;37.412;2022-12-18T00:03:41;98478.59;;;-4.34;81.60
69035;BME280;56091;55.756;37.412;2022-12-18T00:08:45;98458.69;;;-4.37;81.59
69035;BME280;56091;55.756;37.412;2022-12-18T00:13:47;98445.34;;;-4.35;81.98
69035;BME280;56091;55.756;37.412;2022-12-18T00:18:49;98437.53;;;-4.43;81.41
69035;BME280;56091;55.756;37.412;2022-12-18T00:23:51;98436.97;;;-4.39;81.66
69035;BME280;56091;55.756;37.412;2022-12-18T00:28:53;98433.06;;;-4.43;81.77
69035;BME280;56091;55.756;37.412;2022-12-18T00:33:59;98418.16;;;-4.51;81.62
69035;BME280;56091;55.756;37.412;2022-12-18T00:39:04;98401.63;;;-4.59;81.86
69035;BME280;56091;55.756;37.412;2022-12-18T00:44:10;98411.91;;;-4.49;81.23
69035;BME280;56091;55.756;37.412;2022-12-18T00:49:14;98405.56;;;-4.40;81.60
69035;BME280;56091;55.756;37.412;2022-12-18T00:54:18;98399.38;;;-4.47;81.12
69035;BME280;56091;55.756;37.412;2022-12-18T00:59:19;98389.56;;;-4.54;80.30
69035;BME280;56091;55.756;37.412;2022-12-18T01:04:19;98384.66;;;-4.57;80.61
69035;BME280;56091;55.756;37.412;2022-12-18T01:09:20;98383.28;;;-4.67;80.90
69035;BME280;56091;55.756;37.412;2022-12-18T01:14:21;98363.28;;;-4.77;81.03
69035;BME280;56091;55.756;37.412;2022-12-18T01:19:22;98301.38;;;-5.02;80.79
69035;BME280;56091;55.756;37.412;2022-12-18T01:24:24;98358.78;;;-4.68;80.83
69035;BME280;56091;55.756;37.412;2022-12-18T01:29:25;98366.31;;;-4.65;80.99
69035;BME280;56091;55.756;37.412;2022-12-18T01:34:26;98375.22;;;-4.66;80.44
69035;BME280;56091;55.756;37.412;2022-12-18T01:39:26;98357.78;;;-4.67;80.10
69035;BME280;56091;55.756;37.412;2022-12-18T01:45:03;98366.06;;;-4.55;80.33
69035;BME280;56091;55.756;37.412;2022-12-18T01:55:11;98368.22;;;-4.74;79.49
69035;BME280;56091;55.756;37.412;2022-12-18T02:00:17;98355.44;;;-4.62;79.95
69035;BME280;56091;55.756;37.412;2022-12-18T02:16:24;98360.50;;;-4.60;80.11
69035;BME280;56091;55.756;37.412;2022-12-18T02:26:50;98364.59;;;-4.96;80.63
69035;BME280;56091;55.756;37.412;2022-12-18T02:31:58;98360.63;;;-4.92;80.84
69035;BME280;56091;55.756;37.412;2022-12-18T02:37:02;98359.72;;;-4.99;80.00
69035;BME280;56091;55.756;37.412;2022-12-18T02:42:05;98359.13;;;-5.09;80.14
69035;BME280;56091;55.756;37.412;2022-12-18T02:47:14;98366.03;;;-5.08;80.50
69035;BME280;56091;55.756;37.412;2022-12-18T03:03:16;98373.97;;;-5.62;81.84
69035;BME280;56091;55.756;37.412;2022-12-18T03:08:32;98359.31;;;-5.57;81.88
69035;BME280;56091;55.756;37.412;2022-12-18T03:13:43;98356.81;;;-5.50;81.90
69035;BME280;56091;55.756;37.412;2022-12-18T03:23:55;98343.22;;;-5.62;81.80
69035;BME280;56091;55.756;37.412;2022-12-18T03:29:07;98359.41;;;-5.73;81.39
69035;BME280;56091;55.756;37.412;2022-12-18T03:34:17;98376.03;;;-5.81;81.92
69035;BME280;56091;55.756;37.412;2022-12-18T03:39:21;98369.78;;;-5.80;81.86
69035;BME280;56091;55.756;37.412;2022-12-18T03:50:34;98337.13;;;-6.09;82.46
69035;BME280;56091;55.756;37.412;2022-12-18T03:55:37;98367.50;;;-5.83;82.90
69035;BME280;56091;55.756;37.412;2022-12-18T04:00:43;98368.72;;;-5.94;82.44
69035;BME280;56091;55.756;37.412;2022-12-18T04:05:47;98348.78;;;-6.11;82.27
69035;BME280;56091;55.756;37.412;2022-12-18T04:10:52;98376.69;;;-6.10;82.30
69035;BME280;56091;55.756;37.412;2022-12-18T04:15:53;98391.25;;;-5.99;83.05
69035;BME280;56091;55.756;37.412;2022-12-18T04:20:58;98398.16;;;-6.06;81.83
69035;BME280;56091;55.756;37.412;2022-12-18T04:25:59;98410.03;;;-6.27;81.88
69035;BME280;56091;55.756;37.412;2022-12-18T04:31:18;98424.94;;;-6.19;82.25
69035;BME280;56091;55.756;37.412;2022-12-18T04:36:19;98429.19;;;-6.10;82.28
69035;BME280;56091;55.756;37.412;2022-12-18T04:41:22;98462.69;;;-6.20;81.84
69035;BME280;56091;55.756;37.412;2022-12-18T04:46:26;98445.75;;;-6.10;82.34
69035;BME280;56091;55.756;37.412;2022-12-18T04:51:28;98403.81;;;-6.34;81.74
69035;BME280;56091;55.756;37.412;2022-12-18T04:56:30;98442.38;;;-6.18;82.62
69035;BME280;56091;55.756;37.412;2022-12-18T05:01:31;98424.81;;;-6.34;82.87
69035;BME280;56091;55.756;37.412;2022-12-18T05:06:32;98422.19;;;-6.34;82.29
69035;BME280;56091;55.756;37.412;2022-12-18T05:11:33;98458.28;;;-6.20;83.06
69035;BME280;56091;55.756;37.412;2022-12-18T05:16:34;98434.94;;;-6.15;82.86
69035;BME280;56091;55.756;37.412;2022-12-18T05:21:37;98455.81;;;-6.21;82.05
69035;BME280;56091;55.756;37.412;2022-12-18T05:26:38;98470.25;;;-6.25;81.55
69035;BME280;56091;55.756;37.412;2022-12-18T05:31:39;98474.53;;;-6.33;81.31
69035;BME280;56091;55.756;37.412;2022-12-18T05:36:39;98498.66;;;-6.29;80.65
69035;BME280;56091;55.756;37.412;2022-12-18T05:41:40;98506.19;;;-6.26;80.47
69035;BME280;56091;55.756;37.412;2022-12-18T05:46:41;98515.22;;;-6.37;79.77
69035;BME280;56091;55.756;37.412;2022-12-18T05:51:42;98504.72;;;-6.45;80.15
69035;BME280;56091;55.756;37.412;2022-12-18T05:56:43;98529.31;;;-6.38;80.72
69035;BME280;56091;55.756;37.412;2022-12-18T06:01:43;98536.06;;;-6.43;81.20
69035;BME280;56091;55.756;37.412;2022-12-18T06:06:53;98530.16;;;-6.45;80.92
69035;BME280;56091;55.756;37.412;2022-12-18T06:11:54;98544.78;;;-6.43;81.92
69035;BME280;56091;55.756;37.412;2022-12-18T06:16:55;98554.13;;;-6.49;82.08
69035;BME280;56091;55.756;37.412;2022-12-18T06:21:56;98551.66;;;-6.50;82.25
69035;BME280;56091;55.756;37.412;2022-12-18T06:26:59;98546.56;;;-6.43;81.27
69035;BME280;56091;55.756;37.412;2022-12-18T06:32:00;98549.69;;;-6.48;81.11
69035;BME280;56091;55.756;37.412;2022-12-18T06:37:00;98504.25;;;-6.65;80.35
69035;BME280;56091;55.756;37.412;2022-12-18T06:42:04;98587.22;;;-6.39;80.58
69035;BME280;56091;55.756;37.412;2022-12-18T06:47:05;98594.97;;;-6.21;80.18
69035;BME280;56091;55.756;37.412;2022-12-18T06:52:06;98631.72;;;-6.21;79.51
69035;BME280;56091;55.756;37.412;2022-12-18T06:57:07;98611.69;;;-6.31;79.04
69035;BME280;56091;55.756;37.412;2022-12-18T07:02:11;98617.13;;;-6.16;78.26
69035;BME280;56091;55.756;37.412;2022-12-18T07:07:13;98645.97;;;-6.32;77.99
69035;BME280;56091;55.756;37.412;2022-12-18T07:12:13;98632.88;;;-6.24;77.94
69035;BME280;56091;55.756;37.412;2022-12-18T07:17:14;98640.75;;;-6.16;77.46
69035;BME280;56091;55.756;37.412;2022-12-18T07:22:15;98692.63;;;-6.10;76.95
69035;BME280;56091;55.756;37.412;2022-12-18T07:27:16;98701.31;;;-6.17;76.83
69035;BME280;56091;55.756;37.412;2022-12-18T07:32:16;98697.22;;;-6.03;76.80
69035;BME280;56091;55.756;37.412;2022-12-18T07:37:17;98699.19;;;-6.14;76.44
69035;BME280;56091;55.756;37.412;2022-12-18T07:42:18;98698.88;;;-5.86;76.07
69035;BME280;56091;55.756;37.412;2022-12-18T07:47:36;98687.72;;;-5.96;75.22
69035;BME280;56091;55.756;37.412;2022-12-18T07:52:37;98662.75;;;-6.00;75.01
69035;BME280;56091;55.756;37.412;2022-12-18T07:57:38;98702.97;;;-5.67;75.47
69035;BME280;56091;55.756;37.412;2022-12-18T08:02:41;98702.47;;;-5.87;75.91
69035;BME280;56091;55.756;37.412;2022-12-18T08:07:42;98716.91;;;-5.91;75.89
69035;BME280;56091;55.756;37.412;2022-12-18T08:12:43;98727.56;;;-5.84;75.61
69035;BME280;56091;55.756;37.412;2022-12-18T08:17:44;98763.25;;;-5.57;75.72
69035;BME280;56091;55.756;37.412;2022-12-18T08:22:45;98761.59;;;-5.75;76.24
69035;BME280;56091;55.756;37.412;2022-12-18T08:27:46;98786.38;;;-5.77;77.52
69035;BME280;56091;55.756;37.412;2022-12-18T08:32:51;98768.00;;;-5.77;77.98
69035;BME280;56091;55.756;37.412;2022-12-18T08:37:53;98774.56;;;-5.73;77.69
69035;BME280;56091;55.756;37.412;2022-12-18T08:42:53;98782.13;;;-5.70;77.41
69035;BME280;56091;55.756;37.412;2022-12-18T08:48:13;98803.00;;;-5.60;77.52
69035;BME280;56091;55.756;37.412;2022-12-18T08:53:14;98748.78;;;-5.70;77.96
69035;BME280;56091;55.756;37.412;2022-12-18T08:58:14;98794.44;;;-5.54;77.53
69035;BME280;56091;55.756;37.412;2022-12-18T09:03:17;98794.28;;;-5.44;77.75
69035;BME280;56091;55.756;37.412;2022-12-18T09:08:19;98798.22;;;-5.65;77.71
69035;BME280;56091;55.756;37.412;2022-12-18T09:13:20;98798.72;;;-5.45;78.17
69035;BME280;56091;55.756;37.412;2022-12-18T09:18:22;98801.38;;;-5.37;78.10
69035;BME280;56091;55.756;37.412;2022-12-18T09:23:23;98823.38;;;-5.30;77.40
69035;BME280;56091;55.756;37.412;2022-12-18T09:28:24;98842.44;;;-5.27;77.93
69035;BME280;56091;55.756;37.412;2022-12-18T09:33:27;98859.69;;;-5.41;78.10
69035;BME280;56091;55.756;37.412;2022-12-18T09:38:28;98867.53;;;-5.58;78.46
69035;BME280;56091;55.756;37.412;2022-12-18T09:43:46;98871.03;;;-5.49;78.92
69035;BME280;56091;55.756;37.412;2022-12-18T09:48:49;98848.31;;;-5.66;78.81
69035;BME280;56091;55.756;37.412;2022-12-18T09:53:57;98856.88;;;-5.56;79.04
69035;BME280;56091;55.756;37.412;2022-12-18T09:59:02;98875.31;;;-5.48;79.23
69035;BME280;56091;55.756;37.412;2022-12-18T10:04:08;98890.75;;;-5.45;79.17
69035;BME280;56091;55.756;37.412;2022-12-18T10:09:35;98897.63;;;-5.52;78.55
69035;BME280;56091;55.756;37.412;2022-12-18T10:30:58;98890.88;;;-5.63;79.59
69035;BME280;56091;55.756;37.412;2022-12-18T10:35:59;98901.56;;;-5.56;79.94
69035;BME280;56091;55.756;37.412;2022-12-18T10:41:05;98901.72;;;-5.58;79.66
69035;BME280;56091;55.756;37.412;2022-12-18T10:51:08;98914.81;;;-5.74;80.54
69035;BME280;56091;55.756;37.412;2022-12-18T10:56:09;98935.84;;;-5.74;80.72
69035;BME280;56091;55.756;37.412;2022-12-18T11:01:15;98945.53;;;-5.75;80.87
69035;BME280;56091;55.756;37.412;2022-12-18T11:06:22;98967.25;;;-5.64;81.34
69035;BME280;56091;55.756;37.412;2022-12-18T11:11:25;98965.78;;;-5.59;80.76
69035;BME280;56091;55.756;37.412;2022-12-18T11:16:27;98965.78;;;-5.67;81.63
69035;BME280;56091;55.756;37.412;2022-12-18T11:21:29;98962.94;;;-5.74;80.81
69035;BME280;56091;55.756;37.412;2022-12-18T11:26:35;98966.00;;;-5.86;81.52
69035;BME280;56091;55.756;37.412;2022-12-18T11:31:37;98998.97;;;-5.92;81.04
69035;BME280;56091;55.756;37.412;2022-12-18T11:36:43;98968.78;;;-5.88;81.17
69035;BME280;56091;55.756;37.412;2022-12-18T11:42:02;98978.03;;;-5.76;81.84
69035;BME280;56091;55.756;37.412;2022-12-18T11:52:47;99003.66;;;-5.78;81.19
69035;BME280;56091;55.756;37.412;2022-12-18T12:03:27;99037.16;;;-5.80;80.18
69035;BME280;56091;55.756;37.412;2022-12-18T12:19:31;99052.31;;;-5.65;80.99
69035;BME280;56091;55.756;37.412;2022-12-18T12:30:40;99082.94;;;-5.82;81.11
69035;BME280;56091;55.756;37.412;2022-12-18T12:41:08;99101.94;;;-5.89;80.55
69035;BME280;56091;55.756;37.412;2022-12-18T12:46:33;99129.75;;;-5.86;80.86
69035;BME280;56091;55.756;37.412;2022-12-18T12:51:40;99115.84;;;-6.04;80.49
69035;BME280;56091;55.756;37.412;2022-12-18T13:12:29;99169.06;;;-5.76;81.15
69035;BME280;56091;55.756;37.412;2022-12-18T13:17:48;99170.09;;;-5.69;81.12
69035;BME280;56091;55.756;37.412;2022-12-18T13:22:49;99190.84;;;-5.58;81.69
69035;BME280;56091;55.756;37.412;2022-12-18T13:27:59;99203.84;;;-5.56;80.64
69035;BME280;56091;55.756;37.412;2022-12-18T13:38:35;99210.41;;;-5.60;81.94
69035;BME280;56091;55.756;37.412;2022-12-18T13:43:43;99245.72;;;-5.63;82.17
69035;BME280;56091;55.756;37.412;2022-12-18T13:53:57;99267.41;;;-5.79;81.30
69035;BME280;56091;55.756;37.412;2022-12-18T14:04:33;99258.94;;;-6.09;78.96
69035;BME280;56091;55.756;37.412;2022-12-18T14:09:39;99275.88;;;-5.85;79.30
69035;BME280;56091;55.756;37.412;2022-12-18T14:14:45;99297.97;;;-5.78;78.54
69035;BME280;56091;55.756;37.412;2022-12-18T14:19:49;99311.84;;;-5.68;79.03
69035;BME280;56091;55.756;37.412;2022-12-18T14:25:13;99312.03;;;-5.69;78.85
69035;BME280;56091;55.756;37.412;2022-12-18T14:30:25;99334.16;;;-5.72;78.77
69035;BME280;56091;55.756;37.412;2022-12-18T14:35:27;99328.00;;;-5.98;77.94
69035;BME280;56091;55.756;37.412;2022-12-18T14:40:30;99345.47;;;-5.89;77.77
69035;BME280;56091;55.756;37.412;2022-12-18T14:45:44;99346.56;;;-5.82;78.38
69035;BME280;56091;55.756;37.412;2022-12-18T14:51:04;99368.66;;;-5.84;77.91
69035;BME280;56091;55.756;37.412;2022-12-18T14:56:15;99382.22;;;-5.97;77.83
69035;BME280;56091;55.756;37.412;2022-12-18T15:01:29;99361.66;;;-6.12;78.32
69035;BME280;56091;55.756;37.412;2022-12-18T15:06:37;99389.09;;;-5.96;78.37
69035;BME280;56091;55.756;37.412;2022-12-18T15:16:42;99394.03;;;-6.21;78.96
69035;BME280;56091;55.756;37.412;2022-12-18T15:21:43;99412.25;;;-6.10;79.03
69035;BME280;56091;55.756;37.412;2022-12-18T15:26:44;99440.50;;;-6.21;79.27
69035;BME280;56091;55.756;37.412;2022-12-18T15:37:03;99431.19;;;-6.53;79.70
69035;BME280;56091;55.756;37.412;2022-12-18T15:42:04;99403.88;;;-6.80;80.44
69035;BME280;56091;55.756;37.412;2022-12-18T15:47:23;99433.84;;;-7.02;79.97
69035;BME280;56091;55.756;37.412;2022-12-18T15:52:24;99407.75;;;-7.33;79.36
69035;BME280;56091;55.756;37.412;2022-12-18T15:57:26;99472.50;;;-7.14;79.59
69035;BME280;56091;55.756;37.412;2022-12-18T16:02:27;99465.84;;;-7.28;78.49
69035;BME280;56091;55.756;37.412;2022-12-18T16:07:37;99427.97;;;-7.74;78.42
69035;BME280;56091;55.756;37.412;2022-12-18T16:12:38;99498.47;;;-7.61;77.92
69035;BME280;56091;55.756;37.412;2022-12-18T16:17:40;99507.41;;;-7.63;77.92
69035;BME280;56091;55.756;37.412;2022-12-18T16:22:41;99510.59;;;-7.70;77.48
69035;BME280;56091;55.756;37.412;2022-12-18T16:27:43;99520.81;;;-7.88;77.03
69035;BME280;56091;55.756;37.412;2022-12-18T16:32:44;99543.34;;;-8.06;76.40
69035;BME280;56091;55.756;37.412;2022-12-18T16:37:45;99563.34;;;-8.26;76.28
69035;BME280;56091;55.756;37.412;2022-12-18T16:42:46;99530.63;;;-8.41;76.40
69035;BME280;56091;55.756;37.412;2022-12-18T16:47:47;99520.38;;;-8.66;76.64
69035;BME280;56091;55.756;37.412;2022-12-18T16:52:48;99486.16;;;-8.95;77.24
69035;BME280;56091;55.756;37.412;2022-12-18T16:57:48;99569.34;;;-8.56;77.49
69035;BME280;56091;55.756;37.412;2022-12-18T17:02:49;99574.19;;;-8.52;77.59
69035;BME280;56091;55.756;37.412;2022-12-18T17:07:54;99589.56;;;-8.58;77.50
69035;BME280;56091;55.756;37.412;2022-12-18T17:12:57;99585.06;;;-8.68;77.95
69035;BME280;56091;55.756;37.412;2022-12-18T17:17:59;99596.59;;;-8.59;78.74
69035;BME280;56091;55.756;37.412;2022-12-18T17:23:00;99612.53;;;-8.62;78.66
69035;BME280;56091;55.756;37.412;2022-12-18T17:28:01;99621.44;;;-8.53;78.66
69035;BME280;56091;55.756;37.412;2022-12-18T17:33:01;99631.03;;;-8.54;78.26
69035;BME280;56091;55.756;37.412;2022-12-18T17:38:02;99626.94;;;-8.68;78.05
69035;BME280;56091;55.756;37.412;2022-12-18T17:43:03;99644.91;;;-8.74;78.37
69035;BME280;56091;55.756;37.412;2022-12-18T17:48:05;99638.63;;;-8.83;78.62
69035;BME280;56091;55.756;37.412;2022-12-18T17:53:06;99668.91;;;-8.69;78.47
69035;BME280;56091;55.756;37.412;2022-12-18T17:58:07;99664.78;;;-8.83;77.85
69035;BME280;56091;55.756;37.412;2022-12-18T18:03:08;99667.53;;;-9.18;76.91
69035;BME280;56091;55.756;37.412;2022-12-18T18:08:09;99685.69;;;-9.28;77.62
69035;BME280;56091;55.756;37.412;2022-12-18T18:13:18;99686.16;;;-9.46;78.31
69035;BME280;56091;55.756;37.412;2022-12-18T18:18:39;99691.16;;;-9.54;78.60
69035;BME280;56091;55.756;37.412;2022-12-18T18:23:40;99682.94;;;-9.60;78.24
69035;BME280;56091;55.756;37.412;2022-12-18T18:28:41;99716.34;;;-9.88;77.13
69035;BME280;56091;55.756;37.412;2022-12-18T18:33:42;99698.34;;;-10.28;77.46
69035;BME280;56091;55.756;37.412;2022-12-18T18:38:43;99660.44;;;-10.81;77.84
69035;BME280;56091;55.756;37.412;2022-12-18T18:43:44;99746.56;;;-10.21;78.35
69035;BME280;56091;55.756;37.412;2022-12-18T18:48:44;99752.00;;;-10.24;77.85
69035;BME280;56091;55.756;37.412;2022-12-18T18:53:46;99754.53;;;-10.47;77.75
69035;BME280;56091;55.756;37.412;2022-12-18T18:58:47;99758.41;;;-10.52;78.09
69035;BME280;56091;55.756;37.412;2022-12-18T19:03:48;99782.19;;;-10.57;78.24
69035;BME280;56091;55.756;37.412;2022-12-18T19:08:53;99786.91;;;-10.75;78.29
69035;BME280;56091;55.756;37.412;2022-12-18T19:13:58;99785.31;;;-10.65;78.66
69035;BME280;56091;55.756;37.412;2022-12-18T19:19:06;99797.84;;;-10.70;78.44
69035;BME280;56091;55.756;37.412;2022-12-18T19:24:08;99796.81;;;-10.80;78.61
69035;BME280;56091;55.756;37.412;2022-12-18T19:29:10;99784.94;;;-10.97;78.27
69035;BME280;56091;55.756;37.412;2022-12-18T19:34:11;99831.44;;;-10.78;78.48
69035;BME280;56091;55.756;37.412;2022-12-18T19:39:17;99825.91;;;-10.73;78.69
69035;BME280;56091;55.756;37.412;2022-12-18T19:44:18;99812.34;;;-10.91;78.93
69035;BME280;56091;55.756;37.412;2022-12-18T19:49:20;99837.91;;;-10.84;78.95
69035;BME280;56091;55.756;37.412;2022-12-18T19:54:21;99831.13;;;-10.86;78.28
69035;BME280;56091;55.756;37.412;2022-12-18T19:59:21;99789.19;;;-11.34;78.93
69035;BME280;56091;55.756;37.412;2022-12-18T20:04:26;99846.22;;;-11.04;79.10
69035;BME280;56091;55.756;37.412;2022-12-18T20:09:27;99861.66;;;-11.01;78.87
69035;BME280;56091;55.756;37.412;2022-12-18T20:14:27;99888.13;;;-11.20;78.74
69035;BME280;56091;55.756;37.412;2022-12-18T20:19:28;99883.97;;;-11.10;79.16
69035;BME280;56091;55.756;37.412;2022-12-18T20:24:29;99883.97;;;-11.10;79.12
69035;BME280;56091;55.756;37.412;2022-12-18T20:29:31;99869.19;;;-11.09;79.01
69035;BME280;56091;55.756;37.412;2022-12-18T20:34:32;99821.78;;;-11.54;78.86
69035;BME280;56091;55.756;37.412;2022-12-18T20:39:33;99897.50;;;-11.17;78.97
69035;BME280;56091;55.756;37.412;2022-12-18T20:44:34;99883.53;;;-11.16;79.12
69035;BME280;56091;55.756;37.412;2022-12-18T20:49:37;99885.06;;;-11.27;78.60
69035;BME280;56091;55.756;37.412;2022-12-18T20:54:38;99912.47;;;-11.34;78.67
69035;BME280;56091;55.756;37.412;2022-12-18T20:59:39;99892.78;;;-11.38;79.00
69035;BME280;56091;55.756;37.412;2022-12-18T21:04:42;99918.47;;;-11.19;79.11
69035;BME280;56091;55.756;37.412;2022-12-18T21:09:43;99910.16;;;-11.39;79.04
69035;BME280;56091;55.756;37.412;2022-12-18T21:14:44;99909.56;;;-11.29;79.32
69035;BME280;56091;55.756;37.412;2022-12-18T21:19:44;99896.94;;;-11.35;78.87
69035;BME280;56091;55.756;37.412;2022-12-18T21:24:45;99915.34;;;-11.39;78.92
69035;BME280;56091;55.756;37.412;2022-12-18T21:29:46;99922.00;;;-11.47;78.88
69035;BME280;56091;55.756;37.412;2022-12-18T21:34:47;99920.19;;;-11.60;78.85
69035;BME280;56091;55.756;37.412;2022-12-18T21:39:48;99940.63;;;-11.53;78.93
69035;BME280;56091;55.756;37.412;2022-12-18T21:44:50;99942.31;;;-11.67;79.37
69035;BME280;56091;55.756;37.412;2022-12-18T21:49:52;99935.66;;;-11.71;79.80
69035;BME280;56091;55.756;37.412;2022-12-18T21:54:53;99953.88;;;-11.71;80.14
69035;BME280;56091;55.756;37.412;2022-12-18T21:59:53;99948.00;;;-11.60;80.06
69035;BME280;56091;55.756;37.412;2022-12-18T22:05:01;99963.03;;;-11.51;79.64
69035;BME280;56091;55.756;37.412;2022-12-18T22:10:07;99946.31;;;-11.61;79.93
69035;BME280;56091;55.756;37.412;2022-12-18T22:15:10;99952.72;;;-11.52;79.91
69035;BME280;56091;55.756;37.412;2022-12-18T22:20:14;99935.31;;;-11.52;79.49
69035;BME280;56091;55.756;37.412;2022-12-18T22:25:15;99943.19;;;-11.39;79.38
69035;BME280;56091;55.756;37.412;2022-12-18T22:30:16;99956.38;;;-11.42;79.68
69035;BME280;56091;55.756;37.412;2022-12-18T22:35:17;99946.84;;;-11.42;79.67
69035;BME280;56091;55.756;37.412;2022-12-18T22:40:22;99968.03;;;-11.48;79.92
69035;BME280;56091;55.756;37.412;2022-12-18T22:45:26;99956.25;;;-11.53;80.27
69035;BME280;56091;55.756;37.412;2022-12-18T22:50:27;99964.56;;;-11.34;80.21
69035;BME280;56091;55.756;37.412;2022-12-18T22:55:28;99960.97;;;-11.46;80.32
69035;BME280;56091;55.756;37.412;2022-12-18T23:00:28;99952.72;;;-11.52;80.53
69035;BME280;56091;55.756;37.412;2022-12-18T23:05:29;99960.97;;;-11.46;80.13
69035;BME280;56091;55.756;37.412;2022-12-18T23:10:37;99974.78;;;-11.31;80.29
69035;BME280;56091;55.756;37.412;2022-12-18T23:15:41;99999.69;;;-11.27;80.53
69035;BME280;56091;55.756;37.412;2022-12-18T23:20:42;99988.53;;;-11.29;80.75
69035;BME280;56091;55.756;37.412;2022-12-18T23:25:48;99984.28;;;-11.30;80.63
69035;BME280;56091;55.756;37.412;2022-12-18T23:30:48;100000.22;;;-11.07;80.67
69035;BME280;56091;55.756;37.412;2022-12-18T23:35:49;100000.13;;;-11.06;79.85
69035;BME280;56091;55.756;37.412;2022-12-18T23:40:50;99983.06;;;-11.24;80.40
69035;BME280;56091;55.756;37.412;2022-12-18T23:45:51;100018.34;;;-11.06;80.25
69035;BME280;56091;55.756;37.412;2022-12-18T23:50:52;99980.22;;;-11.21;79.59
69035;BME280;56091;55.756;37.412;2022-12-18T23:55:53;100024.59;;;-11.08;80.33
